createdAt,value
2023-09-05T00:02:03.670Z,73.48
2023-09-05T00:05:07.002Z,73.47
2023-09-05T00:08:08.769Z,73.43
2023-09-05T00:11:10.421Z,73.46
2023-09-05T00:14:12.801Z,73.71
2023-09-05T00:17:14.508Z,73.66
2023-09-05T00:20:17.063Z,73.36
2023-09-05T00:23:18.657Z,73.36
2023-09-05T00:26:20.422Z,73.30
2023-09-05T00:29:23.594Z,73.51
2023-09-05T00:32:25.206Z,73.20
2023-09-05T00:35:27.240Z,73.08
2023-09-05T00:38:29.633Z,72.96
2023-09-05T00:41:31.211Z,72.93
2023-09-05T00:44:32.972Z,73.05
2023-09-05T00:47:34.575Z,73.18
2023-09-05T00:50:36.356Z,72.79
2023-09-05T00:53:38.127Z,73.07
2023-09-05T00:56:39.833Z,73.49
2023-09-05T00:59:42.540Z,73.61
2023-09-05T01:02:44.205Z,73.52
2023-09-05T01:05:48.882Z,73.88
2023-09-05T01:08:57.625Z,73.64
2023-09-05T01:11:59.349Z,73.79
2023-09-05T01:15:01.055Z,73.79
2023-09-05T01:18:02.740Z,73.85
2023-09-05T01:21:10.432Z,73.74
2023-09-05T01:24:21.738Z,73.68
2023-09-05T01:27:24.980Z,74.10
2023-09-05T01:30:28.842Z,74.10
2023-09-05T01:33:30.429Z,74.11
2023-09-05T01:36:32.110Z,73.96
2023-09-05T01:39:33.796Z,73.89
2023-09-05T01:42:35.483Z,73.75
2023-09-05T01:45:37.140Z,73.76
2023-09-05T01:48:38.918Z,74.02
2023-09-05T01:51:40.553Z,73.93
2023-09-05T01:54:42.663Z,74.05
2023-09-05T01:57:44.232Z,74.12
2023-09-05T02:00:45.962Z,74.23
2023-09-05T02:03:48.921Z,74.06
2023-09-05T02:06:50.587Z,74.18
2023-09-05T02:09:52.180Z,74.06
2023-09-05T02:12:53.829Z,74.12
2023-09-05T02:15:55.544Z,73.91
2023-09-05T02:18:58.108Z,74.10
2023-09-05T02:21:59.777Z,74.24
2023-09-05T02:25:01.599Z,74.29
2023-09-05T02:28:03.563Z,74.31
2023-09-05T02:31:06.695Z,74.29
2023-09-05T02:34:08.307Z,74.42
2023-09-05T02:37:09.843Z,74.61
2023-09-05T02:40:11.936Z,74.53
2023-09-05T02:43:14.482Z,74.57
2023-09-05T02:46:16.705Z,74.67
2023-09-05T02:49:18.485Z,74.92
2023-09-05T02:52:20.051Z,75.05
2023-09-05T02:55:21.896Z,74.96
2023-09-05T02:58:23.562Z,74.93
2023-09-05T03:01:25.434Z,74.76
2023-09-05T03:04:27.307Z,74.92
2023-09-05T03:07:29.385Z,74.93
2023-09-05T03:10:31.062Z,74.71
2023-09-05T03:13:32.689Z,74.55
2023-09-05T03:16:34.319Z,74.91
2023-09-05T03:19:40.471Z,74.99
2023-09-05T03:22:42.578Z,75.26
2023-09-05T03:25:44.509Z,75.30
2023-09-05T03:28:46.541Z,75.30
2023-09-05T03:31:49.330Z,75.29
2023-09-05T03:34:50.919Z,75.41
2023-09-05T03:37:52.536Z,75.29
2023-09-05T03:40:57.312Z,75.37
2023-09-05T03:43:58.910Z,75.21
2023-09-05T03:47:00.701Z,75.20
2023-09-05T03:50:02.271Z,75.14
2023-09-05T03:53:04.128Z,75.34
2023-09-05T03:56:06.466Z,75.22
2023-09-05T03:59:08.139Z,75.07
2023-09-05T04:02:09.833Z,75.15
2023-09-05T04:05:11.437Z,75.32
2023-09-05T04:08:13.200Z,75.47
2023-09-05T04:11:14.768Z,75.39
2023-09-05T04:14:16.509Z,75.25
2023-09-05T04:17:18.391Z,75.42
2023-09-05T04:20:20.275Z,75.57
2023-09-05T04:23:22.037Z,75.66
2023-09-05T04:26:23.961Z,75.21
2023-09-05T04:29:25.936Z,75.01
2023-09-05T04:32:27.851Z,75.22
2023-09-05T04:35:30.918Z,75.56
2023-09-05T04:38:32.536Z,75.78
2023-09-05T04:41:34.394Z,75.64
2023-09-05T04:44:36.216Z,75.91
2023-09-05T04:47:38.255Z,75.79
2023-09-05T04:50:39.810Z,76.00
2023-09-05T04:53:42.201Z,75.96
2023-09-05T04:56:43.838Z,76.04
2023-09-05T04:59:46.247Z,75.83
2023-09-05T05:02:48.066Z,76.09
2023-09-05T05:05:49.792Z,76.24
2023-09-05T05:08:51.430Z,76.18
2023-09-05T05:11:53.119Z,76.13
2023-09-05T05:14:55.018Z,76.15
2023-09-05T05:17:56.682Z,76.85
2023-09-05T05:20:58.634Z,77.06
2023-09-05T05:24:00.354Z,76.90
2023-09-05T05:27:02.249Z,76.60
2023-09-05T05:30:04.297Z,76.34
2023-09-05T05:33:06.002Z,76.22
2023-09-05T05:36:07.856Z,75.71
2023-09-05T05:39:13.218Z,75.54
2023-09-05T05:42:14.917Z,75.14
2023-09-05T05:45:16.707Z,74.92
2023-09-05T05:48:18.394Z,74.82
2023-09-05T05:51:20.212Z,74.43
2023-09-05T05:54:22.070Z,74.24
2023-09-05T05:57:23.732Z,74.08
2023-09-05T06:00:25.540Z,73.88
2023-09-05T06:03:27.305Z,73.73
2023-09-05T06:06:29.494Z,73.81
2023-09-05T06:09:31.507Z,73.82
2023-09-05T06:12:33.226Z,73.94
2023-09-05T06:15:35.144Z,74.21
2023-09-05T06:18:40.089Z,74.39
2023-09-05T06:21:42.206Z,74.06
2023-09-05T06:24:44.087Z,73.73
2023-09-05T06:27:45.971Z,73.20
2023-09-05T06:30:47.705Z,71.59
2023-09-05T06:33:49.350Z,71.94
2023-09-05T06:36:51.072Z,72.33
2023-09-05T06:39:52.782Z,72.32
2023-09-05T06:42:54.332Z,71.89
2023-09-05T06:46:03.788Z,71.58
2023-09-05T06:49:05.573Z,70.68
2023-09-05T06:52:07.185Z,70.66
2023-09-05T06:55:09.168Z,70.16
2023-09-05T06:58:10.735Z,69.94
2023-09-05T07:01:12.377Z,69.74
2023-09-05T07:04:14.758Z,69.03
2023-09-05T07:07:16.733Z,68.55
2023-09-05T07:10:18.382Z,67.79
2023-09-05T07:13:20.006Z,67.29
2023-09-05T07:16:21.835Z,67.08
2023-09-05T07:19:23.796Z,66.36
2023-09-05T07:22:25.440Z,66.13
2023-09-05T07:25:27.177Z,65.44
2023-09-05T07:28:29.676Z,65.12
2023-09-05T07:31:31.610Z,64.86
2023-09-05T07:34:33.358Z,63.19
2023-09-05T07:37:34.979Z,63.69
2023-09-05T07:40:36.596Z,63.72
2023-09-05T07:43:38.565Z,63.16
2023-09-05T07:46:40.400Z,62.52
2023-09-05T07:49:41.991Z,61.99
2023-09-05T07:52:43.646Z,61.41
2023-09-05T07:55:45.523Z,61.61
2023-09-05T07:58:47.193Z,60.52
2023-09-05T08:01:48.907Z,58.83
2023-09-05T08:04:50.512Z,58.73
2023-09-05T08:07:52.226Z,58.20
2023-09-05T08:10:54.194Z,58.84
2023-09-05T08:13:57.189Z,59.53
2023-09-05T08:16:59.067Z,58.93
2023-09-05T08:20:00.692Z,57.18
2023-09-05T08:23:02.411Z,57.55
2023-09-05T08:26:04.251Z,58.07
2023-09-05T08:29:05.964Z,57.42
2023-09-05T08:32:07.929Z,56.37
2023-09-05T08:35:10.376Z,55.89
2023-09-05T08:38:12.036Z,56.04
2023-09-05T08:41:13.762Z,55.57
2023-09-05T08:44:15.371Z,53.72
2023-09-05T08:47:17.020Z,53.28
2023-09-05T08:50:18.807Z,52.99
2023-09-05T08:53:24.117Z,52.51
2023-09-05T08:56:26.460Z,51.79
2023-09-05T08:59:29.058Z,53.12
2023-09-05T09:02:30.762Z,52.57
2023-09-05T09:05:32.537Z,51.85
2023-09-05T09:08:44.814Z,50.61
2023-09-05T09:11:59.761Z,50.66
2023-09-05T09:15:14.196Z,51.40
2023-09-05T09:18:17.660Z,51.69
2023-09-05T09:21:23.345Z,51.20
2023-09-05T09:24:31.786Z,52.05
2023-09-05T09:27:33.429Z,50.20
2023-09-05T09:30:35.200Z,49.68
2023-09-05T09:33:37.169Z,49.23
2023-09-05T09:36:39.130Z,48.92
2023-09-05T09:39:40.925Z,48.31
2023-09-05T09:42:43.912Z,49.72
2023-09-05T09:45:45.568Z,47.05
2023-09-05T09:48:48.058Z,48.33
2023-09-05T09:51:53.099Z,48.45
2023-09-05T09:54:56.277Z,47.28
2023-09-05T09:58:02.090Z,47.12
2023-09-05T10:01:05.020Z,47.25
2023-09-05T10:04:07.041Z,46.49
2023-09-05T10:07:11.549Z,46.70
2023-09-05T10:10:13.256Z,46.30
2023-09-05T10:13:15.717Z,45.55
2023-09-05T10:16:18.397Z,45.27
2023-09-05T10:19:20.961Z,44.71
2023-09-05T10:22:22.777Z,43.39
2023-09-05T10:25:24.820Z,42.55
2023-09-05T10:28:28.285Z,42.66
2023-09-05T10:31:30.815Z,42.87
2023-09-05T10:34:50.540Z,44.38
2023-09-05T10:37:59.205Z,44.74
2023-09-05T10:41:00.799Z,43.85
2023-09-05T10:44:02.723Z,43.61
2023-09-05T10:47:26.129Z,43.94
2023-09-05T10:50:27.835Z,42.78
2023-09-05T10:53:29.774Z,42.81
2023-09-05T10:56:42.370Z,41.52
2023-09-05T10:59:44.118Z,42.23
2023-09-05T11:02:48.344Z,41.94
2023-09-05T11:05:49.961Z,41.20
2023-09-05T11:09:01.992Z,41.96
2023-09-05T11:12:06.392Z,39.96
2023-09-05T11:15:08.846Z,41.74
2023-09-05T11:18:12.551Z,42.51
2023-09-05T11:21:22.932Z,41.28
2023-09-05T11:24:31.490Z,40.11
2023-09-05T11:27:33.270Z,36.71
2023-09-05T11:30:38.808Z,37.76
2023-09-05T11:33:40.511Z,38.61
2023-09-05T11:36:42.204Z,36.62
2023-09-05T11:39:43.957Z,37.49
2023-09-05T11:42:45.606Z,39.76
2023-09-05T11:45:47.414Z,38.66
2023-09-05T11:48:51.634Z,38.10
2023-09-05T11:51:53.454Z,37.75
2023-09-05T11:54:55.610Z,38.43
2023-09-05T11:57:58.454Z,37.65
2023-09-05T12:01:01.601Z,37.57
2023-09-05T12:04:04.091Z,38.71
2023-09-05T12:07:06.249Z,38.62
2023-09-05T12:10:08.384Z,38.09
2023-09-05T12:13:10.139Z,38.78
2023-09-05T12:16:12.043Z,37.05
2023-09-05T12:19:13.668Z,37.15
2023-09-05T12:22:21.427Z,39.02
2023-09-05T12:25:26.152Z,38.23
2023-09-05T12:28:28.916Z,37.49
2023-09-05T12:31:30.874Z,38.02
2023-09-05T12:34:32.546Z,39.40
2023-09-05T12:37:34.204Z,38.82
2023-09-05T12:40:35.859Z,40.24
2023-09-05T12:43:37.715Z,39.78
2023-09-05T12:46:39.504Z,38.61
2023-09-05T12:49:41.472Z,38.68
2023-09-05T12:52:43.862Z,38.13
2023-09-05T12:55:45.635Z,38.59
2023-09-05T12:58:47.447Z,38.84
2023-09-05T13:01:49.306Z,39.17
2023-09-05T13:04:51.073Z,39.13
2023-09-05T13:07:52.706Z,38.03
2023-09-05T13:10:54.281Z,38.55
2023-09-05T13:13:56.022Z,37.94
2023-09-05T13:16:57.659Z,38.41
2023-09-05T13:19:59.424Z,38.58
2023-09-05T13:23:01.531Z,38.51
2023-09-05T13:26:04.485Z,38.09
2023-09-05T13:29:07.055Z,38.20
2023-09-05T13:32:08.768Z,38.71
2023-09-05T13:35:10.698Z,37.98
2023-09-05T13:38:12.624Z,36.50
2023-09-05T13:41:14.171Z,35.83
2023-09-05T13:44:15.836Z,36.83
2023-09-05T13:47:18.216Z,37.87
2023-09-05T13:50:21.626Z,37.95
2023-09-05T13:53:23.633Z,38.73
2023-09-05T13:56:25.614Z,39.54
2023-09-05T13:59:27.377Z,39.39
2023-09-05T14:02:29.024Z,39.53
2023-09-05T14:05:30.936Z,40.29
2023-09-05T14:08:32.582Z,40.19
2023-09-05T14:11:34.258Z,40.79
2023-09-05T14:14:36.055Z,40.14
2023-09-05T14:17:37.748Z,40.96
2023-09-05T14:20:40.062Z,41.72
2023-09-05T14:23:41.823Z,41.53
2023-09-05T14:26:43.845Z,41.68
2023-09-05T14:29:45.432Z,41.57
2023-09-05T14:32:47.140Z,42.50
2023-09-05T14:35:48.726Z,42.66
2023-09-05T14:38:50.396Z,42.26
2023-09-05T14:41:52.083Z,42.85
2023-09-05T14:44:54.035Z,42.74
2023-09-05T14:47:56.344Z,42.51
2023-09-05T14:50:57.992Z,42.05
2023-09-05T14:53:59.565Z,42.86
2023-09-05T14:57:01.285Z,42.30
2023-09-05T15:00:03.421Z,42.51
2023-09-05T15:03:05.415Z,43.00
2023-09-05T15:06:07.611Z,42.83
2023-09-05T15:09:09.968Z,42.91
2023-09-05T15:12:12.092Z,42.28
2023-09-05T15:15:13.776Z,41.57
2023-09-05T15:18:15.456Z,41.62
2023-09-05T15:21:17.385Z,40.87
2023-09-05T15:24:19.062Z,40.80
2023-09-05T15:27:21.175Z,40.71
2023-09-05T15:30:22.948Z,40.89
2023-09-05T15:33:25.700Z,40.48
2023-09-05T15:36:28.823Z,39.96
2023-09-05T15:39:30.480Z,39.97
2023-09-05T15:42:32.691Z,39.79
2023-09-05T15:45:34.449Z,40.33
2023-09-05T15:48:36.247Z,40.70
2023-09-05T15:51:38.040Z,41.64
2023-09-05T15:54:43.105Z,42.70
2023-09-05T15:57:45.020Z,43.30
2023-09-05T16:00:47.568Z,43.74
2023-09-05T16:03:49.669Z,43.84
2023-09-05T16:06:51.599Z,44.00
2023-09-05T16:09:53.246Z,44.48
2023-09-05T16:12:54.929Z,44.67
2023-09-05T16:15:56.789Z,45.07
2023-09-05T16:19:05.435Z,45.43
2023-09-05T16:22:07.140Z,45.57
2023-09-05T16:25:09.562Z,45.86
2023-09-05T16:28:11.188Z,46.08
2023-09-05T16:31:17.935Z,46.25
2023-09-05T16:34:19.706Z,46.54
2023-09-05T16:37:24.096Z,46.79
2023-09-05T16:40:28.703Z,46.98
2023-09-05T16:43:30.876Z,47.26
2023-09-05T16:46:32.577Z,47.40
2023-09-05T16:49:34.451Z,47.81
2023-09-05T16:52:36.109Z,47.94
2023-09-05T16:55:38.094Z,48.43
2023-09-05T16:58:39.976Z,48.87
2023-09-05T17:01:41.740Z,49.30
2023-09-05T17:04:43.385Z,49.60
2023-09-05T17:07:45.314Z,50.12
2023-09-05T17:10:49.293Z,50.35
2023-09-05T17:13:50.903Z,50.66
2023-09-05T17:16:52.623Z,50.86
2023-09-05T17:19:54.312Z,51.38
2023-09-05T17:22:55.946Z,52.00
2023-09-05T17:25:58.222Z,52.45
2023-09-05T17:28:59.871Z,52.88
2023-09-05T17:32:01.732Z,53.24
2023-09-05T17:35:03.938Z,53.75
2023-09-05T17:38:05.826Z,53.93
2023-09-05T17:41:08.082Z,54.29
2023-09-05T17:44:10.179Z,54.44
2023-09-05T17:47:14.171Z,54.84
2023-09-05T17:50:16.389Z,55.14
2023-09-05T17:53:18.037Z,55.45
2023-09-05T17:56:19.662Z,55.68
2023-09-05T17:59:21.375Z,55.85
2023-09-05T18:02:23.306Z,56.12
2023-09-05T18:05:26.715Z,56.45
2023-09-05T18:08:29.007Z,56.80
2023-09-05T18:11:30.806Z,57.05
2023-09-05T18:14:39.068Z,57.23
2023-09-05T18:17:40.912Z,57.70
2023-09-05T18:20:42.533Z,57.93
2023-09-05T18:23:44.154Z,57.92
2023-09-05T18:26:46.240Z,58.20
2023-09-05T18:29:48.478Z,58.39
2023-09-05T18:32:51.287Z,59.01
2023-09-05T18:35:53.073Z,59.12
2023-09-05T18:38:54.695Z,59.47
2023-09-05T18:41:56.394Z,59.81
2023-09-05T18:44:58.189Z,60.02
2023-09-05T18:48:00.054Z,60.15
2023-09-05T18:51:02.147Z,60.39
2023-09-05T18:54:04.152Z,60.71
2023-09-05T18:57:05.970Z,60.98
2023-09-05T19:00:08.276Z,61.06
2023-09-05T19:03:09.995Z,61.40
2023-09-05T19:06:11.646Z,61.49
2023-09-05T19:09:13.854Z,61.57
2023-09-05T19:12:15.551Z,61.81
2023-09-05T19:15:17.368Z,61.95
2023-09-05T19:18:19.155Z,62.15
2023-09-05T19:21:20.989Z,62.36
2023-09-05T19:24:22.783Z,62.49
2023-09-05T19:27:24.498Z,62.52
2023-09-05T19:30:26.170Z,62.40
2023-09-05T19:33:27.793Z,62.27
2023-09-05T19:36:29.531Z,62.47
2023-09-05T19:39:31.379Z,62.99
2023-09-05T19:42:34.776Z,63.27
2023-09-05T19:45:36.401Z,63.53
2023-09-05T19:48:38.059Z,63.75
2023-09-05T19:51:39.776Z,64.04
2023-09-05T19:54:41.499Z,64.18
2023-09-05T19:57:43.370Z,64.31
2023-09-05T20:00:46.183Z,64.53
2023-09-05T20:03:48.172Z,64.79
2023-09-05T20:06:50.347Z,64.95
2023-09-05T20:09:52.085Z,64.95
2023-09-05T20:12:53.911Z,64.85
2023-09-05T20:15:56.085Z,64.91
2023-09-05T20:18:58.004Z,64.96
2023-09-05T20:21:59.722Z,65.16
2023-09-05T20:25:01.520Z,65.19
2023-09-05T20:28:03.226Z,65.20
2023-09-05T20:31:05.257Z,65.39
2023-09-05T20:34:07.095Z,65.57
2023-09-05T20:37:08.866Z,65.61
2023-09-05T20:40:11.103Z,65.57
2023-09-05T20:43:12.863Z,65.78
2023-09-05T20:46:14.514Z,65.82
2023-09-05T20:49:16.344Z,65.86
2023-09-05T20:52:18.136Z,65.72
2023-09-05T20:55:19.811Z,65.99
2023-09-05T20:58:21.455Z,65.97
2023-09-05T21:01:23.254Z,66.18
2023-09-05T21:04:25.283Z,66.25
2023-09-05T21:07:27.066Z,66.34
2023-09-05T21:10:28.952Z,66.47
2023-09-05T21:13:30.689Z,66.52
2023-09-05T21:16:32.341Z,66.60
2023-09-05T21:19:34.260Z,66.79
2023-09-05T21:22:35.853Z,66.43
2023-09-05T21:25:37.480Z,66.63
2023-09-05T21:28:40.015Z,66.68
2023-09-05T21:31:41.695Z,66.70
2023-09-05T21:34:43.429Z,66.77
2023-09-05T21:37:45.033Z,66.71
2023-09-05T21:40:46.947Z,66.82
2023-09-05T21:43:51.719Z,67.01
2023-09-05T21:46:53.718Z,67.05
2023-09-05T21:49:55.697Z,67.39
2023-09-05T21:52:57.242Z,67.50
2023-09-05T21:55:59.064Z,67.28
2023-09-05T21:59:00.733Z,67.33
2023-09-05T22:02:02.365Z,67.84
2023-09-05T22:05:04.307Z,68.05
2023-09-05T22:08:06.478Z,68.09
2023-09-05T22:11:08.131Z,67.92
2023-09-05T22:14:11.035Z,67.92
2023-09-05T22:17:15.013Z,68.13
2023-09-05T22:20:16.675Z,68.09
2023-09-05T22:23:19.263Z,68.09
2023-09-05T22:26:21.029Z,68.32
2023-09-05T22:29:22.901Z,68.30
2023-09-05T22:32:24.678Z,68.38
2023-09-05T22:35:33.369Z,68.35
2023-09-05T22:38:36.580Z,68.50
2023-09-05T22:41:39.069Z,68.74
2023-09-05T22:44:41.749Z,68.82
2023-09-05T22:47:43.840Z,68.60
2023-09-05T22:50:47.671Z,68.66
2023-09-05T22:53:49.934Z,68.67
2023-09-05T22:56:51.709Z,68.86
2023-09-05T22:59:53.381Z,69.08
2023-09-05T23:02:55.406Z,69.02
2023-09-05T23:05:57.588Z,68.97
2023-09-05T23:08:59.434Z,68.92
2023-09-05T23:12:02.171Z,69.02
2023-09-05T23:15:05.103Z,68.89
2023-09-05T23:18:07.822Z,69.16
2023-09-05T23:21:09.744Z,68.82
2023-09-05T23:24:11.329Z,69.05
2023-09-05T23:27:13.462Z,69.33
2023-09-05T23:30:15.279Z,69.29
2023-09-05T23:33:18.114Z,69.46
2023-09-05T23:36:20.825Z,69.04
2023-09-05T23:39:23.126Z,69.41
2023-09-05T23:42:25.140Z,69.31
2023-09-05T23:45:27.873Z,69.32
2023-09-05T23:48:29.731Z,69.63
2023-09-05T23:51:31.671Z,69.36
2023-09-05T23:54:33.380Z,69.56
2023-09-05T23:57:35.206Z,69.64
